createdAt,value
2018-05-05T00:00:03.222Z,5.90
2018-05-05T00:01:03.199Z,5.60
2018-05-05T00:02:03.203Z,5.90
2018-05-05T00:03:03.171Z,6.10
2018-05-05T00:04:03.158Z,5.70
2018-05-05T00:05:03.132Z,6.00
2018-05-05T00:06:03.109Z,5.70
2018-05-05T00:07:03.097Z,6.20
2018-05-05T00:08:03.078Z,5.50
2018-05-05T00:09:03.065Z,5.90
2018-05-05T00:10:03.041Z,6.20
2018-05-05T00:11:03.023Z,5.60
2018-05-05T00:12:03.015Z,6.40
2018-05-05T00:13:02.990Z,5.90
2018-05-05T00:14:02.971Z,5.80
2018-05-05T00:15:02.960Z,6.50
2018-05-05T00:16:02.942Z,5.80
2018-05-05T00:17:02.932Z,5.90
2018-05-05T00:18:02.904Z,5.70
2018-05-05T00:19:02.889Z,5.60
2018-05-05T00:20:02.870Z,5.50
2018-05-05T00:21:02.849Z,5.80
2018-05-05T00:22:02.840Z,5.40
2018-05-05T00:23:02.816Z,5.80
2018-05-05T00:24:02.804Z,6.20
2018-05-05T00:25:02.787Z,5.80
2018-05-05T00:26:02.771Z,5.80
2018-05-05T00:27:02.749Z,5.90
2018-05-05T00:28:02.732Z,6.20
2018-05-05T00:29:02.717Z,5.60
2018-05-05T00:30:02.698Z,5.70
2018-05-05T00:31:02.682Z,5.90
2018-05-05T00:32:02.658Z,6.20
2018-05-05T00:33:02.643Z,5.90
2018-05-05T00:34:02.639Z,5.20
2018-05-05T00:35:02.606Z,6.00
2018-05-05T00:36:02.590Z,6.30
2018-05-05T00:37:02.572Z,5.80
2018-05-05T00:38:02.556Z,6.10
2018-05-05T00:39:02.539Z,5.90
2018-05-05T00:40:02.520Z,6.50
2018-05-05T00:41:02.502Z,5.50
2018-05-05T00:42:02.485Z,5.50
2018-05-05T00:43:02.469Z,6.00
2018-05-05T00:44:02.448Z,6.10
2018-05-05T00:45:02.434Z,6.30
2018-05-05T00:46:02.414Z,6.00
2018-05-05T00:47:02.400Z,5.70
2018-05-05T00:48:02.378Z,6.20
2018-05-05T00:49:02.360Z,5.70
2018-05-05T00:50:02.347Z,6.40
2018-05-05T00:51:02.327Z,5.50
2018-05-05T00:52:02.392Z,6.00
2018-05-05T00:53:02.296Z,5.90
2018-05-05T00:54:02.272Z,5.40
2018-05-05T00:55:02.257Z,6.00
2018-05-05T00:56:02.240Z,5.70
2018-05-05T00:57:02.220Z,5.50
2018-05-05T00:58:02.200Z,6.40
2018-05-05T00:59:02.186Z,6.00
2018-05-05T01:00:02.167Z,6.70
2018-05-05T01:01:02.149Z,5.60
2018-05-05T01:02:02.212Z,6.20
2018-05-05T01:03:02.118Z,5.70
2018-05-05T01:04:02.098Z,5.80
2018-05-05T01:05:02.095Z,6.50
2018-05-05T01:06:02.069Z,5.90
2018-05-05T01:07:02.052Z,5.80
2018-05-05T01:08:02.035Z,5.30
2018-05-05T01:09:02.011Z,5.90
2018-05-05T01:10:01.999Z,5.80
2018-05-05T01:11:01.980Z,5.30
2018-05-05T01:12:01.957Z,6.10
2018-05-05T01:13:01.941Z,5.70
2018-05-05T01:14:01.926Z,5.80
2018-05-05T01:15:01.905Z,5.10
2018-05-05T01:16:01.894Z,5.50
2018-05-05T01:17:01.871Z,5.60
2018-05-05T01:18:01.853Z,5.20
2018-05-05T01:19:01.839Z,5.50
2018-05-05T01:20:01.820Z,5.00
2018-05-05T01:21:01.799Z,5.40
2018-05-05T01:22:01.784Z,5.30
2018-05-05T01:23:01.771Z,5.60
2018-05-05T01:24:01.750Z,5.50
2018-05-05T01:25:01.730Z,6.00
2018-05-05T01:26:01.709Z,5.80
2018-05-05T01:27:01.692Z,6.00
2018-05-05T01:28:01.675Z,5.60
2018-05-05T01:29:01.657Z,5.70
2018-05-05T01:30:01.640Z,5.90
2018-05-05T01:31:01.626Z,6.20
2018-05-05T01:32:01.606Z,6.50
2018-05-05T01:33:01.592Z,8.10
2018-05-05T01:34:01.573Z,8.20
2018-05-05T01:35:01.558Z,7.40
2018-05-05T01:36:01.536Z,9.10
2018-05-05T01:37:01.516Z,10.40
2018-05-05T01:38:01.498Z,11.10
2018-05-05T01:39:01.491Z,11.60
2018-05-05T01:40:01.465Z,10.80
2018-05-05T01:41:01.448Z,11.40
2018-05-05T01:42:01.429Z,10.60
2018-05-05T01:43:01.409Z,10.30
2018-05-05T01:44:01.399Z,9.30
2018-05-05T01:45:01.377Z,8.40
2018-05-05T01:46:01.358Z,8.00
2018-05-05T01:47:01.340Z,7.00
2018-05-05T01:48:01.329Z,6.80
2018-05-05T01:49:01.317Z,6.70
2018-05-05T01:50:01.286Z,6.70
2018-05-05T01:51:01.269Z,5.80
2018-05-05T01:52:01.255Z,5.70
2018-05-05T01:53:01.238Z,6.40
2018-05-05T01:54:01.213Z,6.50
2018-05-05T01:55:01.198Z,6.10
2018-05-05T01:56:01.184Z,6.10
2018-05-05T01:57:01.164Z,5.30
2018-05-05T01:58:01.149Z,6.10
2018-05-05T01:59:01.126Z,5.80
2018-05-05T02:00:01.113Z,5.60
2018-05-05T02:01:01.096Z,6.20
2018-05-05T02:02:01.080Z,5.80
2018-05-05T02:03:01.058Z,6.00
2018-05-05T02:04:01.047Z,6.60
2018-05-05T02:05:01.026Z,6.10
2018-05-05T02:06:01.004Z,6.40
2018-05-05T02:07:00.991Z,6.80
2018-05-05T02:08:00.977Z,7.40
2018-05-05T02:09:00.953Z,8.40
2018-05-05T02:10:00.933Z,8.30
2018-05-05T02:11:00.922Z,8.80
2018-05-05T02:12:00.905Z,9.70
2018-05-05T02:13:00.887Z,9.40
2018-05-05T02:14:00.866Z,10.60
2018-05-05T02:15:00.850Z,10.90
2018-05-05T02:16:00.828Z,10.60
2018-05-05T02:17:00.822Z,10.30
2018-05-05T02:18:00.796Z,11.30
2018-05-05T02:19:00.779Z,11.20
2018-05-05T02:20:00.760Z,11.70
2018-05-05T02:21:00.748Z,11.60
2018-05-05T02:22:00.731Z,11.30
2018-05-05T02:23:00.711Z,10.80
2018-05-05T02:24:00.693Z,11.40
2018-05-05T02:25:00.673Z,10.60
2018-05-05T02:26:00.653Z,11.60
2018-05-05T02:27:00.636Z,11.70
2018-05-05T02:28:00.619Z,11.00
2018-05-05T02:29:00.610Z,11.10
2018-05-05T02:30:00.592Z,8.20
2018-05-05T02:31:00.570Z,9.40
2018-05-05T02:32:00.549Z,8.90
2018-05-05T02:33:00.532Z,7.50
2018-05-05T02:34:00.518Z,8.20
2018-05-05T02:35:00.495Z,8.80
2018-05-05T02:36:00.479Z,7.80
2018-05-05T02:37:00.466Z,7.60
2018-05-05T02:38:00.451Z,7.60
2018-05-05T02:39:00.429Z,7.00
2018-05-05T02:40:00.410Z,8.70
2018-05-05T02:41:00.392Z,8.00
2018-05-05T02:42:00.380Z,8.40
2018-05-05T02:43:00.362Z,7.70
2018-05-05T02:44:00.336Z,7.90
2018-05-05T02:45:00.322Z,8.00
2018-05-05T02:46:00.306Z,9.10
2018-05-05T02:47:00.376Z,8.50
2018-05-05T02:48:00.272Z,8.90
2018-05-05T02:49:00.250Z,10.50
2018-05-05T02:50:00.237Z,12.10
2018-05-05T02:51:00.226Z,11.50
2018-05-05T02:52:00.200Z,12.00
2018-05-05T02:53:00.182Z,12.90
2018-05-05T02:54:00.162Z,12.30
2018-05-05T02:55:00.148Z,12.30
2018-05-05T02:56:00.126Z,12.10
2018-05-05T02:57:00.109Z,13.10
2018-05-05T02:58:00.090Z,12.50
2018-05-05T02:59:00.076Z,12.20
2018-05-05T03:00:00.061Z,12.20
2018-05-05T03:01:00.037Z,11.90
2018-05-05T03:02:00.023Z,12.60
2018-05-05T03:03:00.008Z,12.80
2018-05-05T03:03:59.988Z,12.70
2018-05-05T03:04:59.968Z,13.30
2018-05-05T03:05:59.949Z,12.10
2018-05-05T03:06:59.938Z,12.10
2018-05-05T03:07:59.916Z,12.10
2018-05-05T03:08:59.899Z,12.40
2018-05-05T03:09:59.880Z,10.00
2018-05-05T03:10:59.865Z,10.10
2018-05-05T03:11:59.848Z,10.90
2018-05-05T03:12:59.826Z,11.00
2018-05-05T03:13:59.808Z,10.10
2018-05-05T03:14:59.792Z,10.90
2018-05-05T03:15:59.781Z,11.30
2018-05-05T03:16:59.758Z,11.70
2018-05-05T03:17:59.740Z,12.30
2018-05-05T03:18:59.722Z,12.40
2018-05-05T03:19:59.706Z,11.80
2018-05-05T03:20:59.691Z,11.60
2018-05-05T03:21:59.668Z,12.00
2018-05-05T03:22:59.649Z,11.10
2018-05-05T03:23:59.634Z,11.10
2018-05-05T03:24:59.620Z,10.60
2018-05-05T03:25:59.603Z,10.60
2018-05-05T03:26:59.583Z,9.70
2018-05-05T03:27:59.563Z,9.80
2018-05-05T03:28:59.554Z,8.90
2018-05-05T03:29:59.528Z,9.30
2018-05-05T03:30:59.511Z,8.70
2018-05-05T03:31:59.495Z,7.60
2018-05-05T03:32:59.477Z,7.10
2018-05-05T03:33:59.454Z,7.90
2018-05-05T03:34:59.438Z,8.00
2018-05-05T03:35:59.420Z,7.10
2018-05-05T03:36:59.405Z,6.80
2018-05-05T03:37:59.390Z,6.50
2018-05-05T03:38:59.366Z,6.90
2018-05-05T03:39:59.351Z,6.30
2018-05-05T03:40:59.335Z,6.40
2018-05-05T03:41:59.313Z,6.10
2018-05-05T03:42:59.296Z,6.00
2018-05-05T03:43:59.280Z,5.70
2018-05-05T03:44:59.261Z,5.90
2018-05-05T03:45:59.246Z,6.20
2018-05-05T03:46:59.228Z,6.40
2018-05-05T03:47:59.208Z,5.80
2018-05-05T03:48:59.189Z,5.70
2018-05-05T03:49:59.172Z,5.80
2018-05-05T03:50:59.157Z,6.80
2018-05-05T03:51:59.137Z,5.60
2018-05-05T03:52:59.123Z,6.30
2018-05-05T03:53:59.099Z,5.60
2018-05-05T03:54:59.081Z,5.70
2018-05-05T03:55:59.067Z,6.70
2018-05-05T03:56:59.048Z,5.80
2018-05-05T03:57:59.030Z,6.50
2018-05-05T03:58:59.011Z,6.70
2018-05-05T03:59:58.995Z,6.20
2018-05-05T04:00:58.979Z,5.90
2018-05-05T04:01:58.969Z,6.10
2018-05-05T04:02:58.949Z,6.10
2018-05-05T04:03:58.927Z,6.00
2018-05-05T04:04:58.909Z,6.10
2018-05-05T04:05:58.890Z,5.80
2018-05-05T04:06:58.871Z,6.20
2018-05-05T04:07:58.856Z,6.30
2018-05-05T04:08:58.837Z,6.00
2018-05-05T04:09:58.813Z,5.90
2018-05-05T04:10:58.804Z,5.70
2018-05-05T04:11:58.779Z,6.50
2018-05-05T04:12:58.765Z,5.70
2018-05-05T04:13:58.742Z,6.30
2018-05-05T04:14:58.726Z,6.10
2018-05-05T04:15:58.709Z,5.80
2018-05-05T04:16:58.699Z,6.30
2018-05-05T04:17:58.673Z,6.60
2018-05-05T04:18:58.656Z,6.20
2018-05-05T04:19:58.635Z,6.60
2018-05-05T04:20:58.629Z,6.30
2018-05-05T04:21:58.599Z,7.10
2018-05-05T04:22:58.584Z,7.60
2018-05-05T04:23:58.566Z,6.90
2018-05-05T04:24:58.546Z,6.80
2018-05-05T04:25:58.529Z,7.70
2018-05-05T04:26:58.514Z,7.70
2018-05-05T04:27:58.497Z,7.40
2018-05-05T04:28:58.479Z,7.20
2018-05-05T04:29:58.458Z,7.80
2018-05-05T04:30:58.439Z,7.50
2018-05-05T04:31:58.422Z,7.20
2018-05-05T04:32:58.417Z,6.80
2018-05-05T04:33:58.388Z,6.60
2018-05-05T04:34:58.370Z,6.40
2018-05-05T04:35:58.352Z,6.60
2018-05-05T04:36:58.334Z,6.20
2018-05-05T04:37:58.316Z,6.10
2018-05-05T04:38:58.298Z,6.30
2018-05-05T04:39:58.280Z,6.40
2018-05-05T04:40:58.261Z,6.50
2018-05-05T04:41:58.248Z,6.10
2018-05-05T04:42:58.229Z,5.90
2018-05-05T04:43:58.209Z,5.80
2018-05-05T04:44:58.188Z,6.00
2018-05-05T04:45:58.174Z,5.90
2018-05-05T04:46:58.158Z,6.30
2018-05-05T04:47:58.142Z,6.60
2018-05-05T04:48:58.119Z,5.90
2018-05-05T04:49:58.139Z,6.80
2018-05-05T04:50:58.087Z,6.30
2018-05-05T04:51:58.067Z,6.40
2018-05-05T04:52:58.050Z,6.50
2018-05-05T04:53:58.029Z,6.90
2018-05-05T04:54:58.009Z,6.90
2018-05-05T04:55:57.993Z,7.50
2018-05-05T04:56:57.975Z,7.10
2018-05-05T04:57:57.962Z,7.10
2018-05-05T04:58:57.939Z,7.00
2018-05-05T04:59:57.920Z,8.70
2018-05-05T05:00:57.907Z,8.50
2018-05-05T05:01:57.884Z,9.20
2018-05-05T05:02:57.866Z,8.80
2018-05-05T05:03:57.853Z,10.00
2018-05-05T05:04:57.830Z,9.10
2018-05-05T05:05:57.826Z,8.80
2018-05-05T05:06:57.792Z,9.40
2018-05-05T05:07:57.775Z,8.10
2018-05-05T05:08:57.757Z,7.20
2018-05-05T05:09:57.740Z,6.90
2018-05-05T05:10:57.810Z,6.70
2018-05-05T05:11:57.706Z,6.60
2018-05-05T05:12:57.690Z,6.30
2018-05-05T05:13:57.675Z,6.30
2018-05-05T05:14:57.654Z,6.30
2018-05-05T05:15:57.635Z,6.10
2018-05-05T05:16:57.619Z,6.20
2018-05-05T05:17:57.596Z,6.10
2018-05-05T05:18:57.581Z,5.80
2018-05-05T05:19:57.559Z,6.00
2018-05-05T05:20:57.541Z,6.00
2018-05-05T05:21:57.524Z,5.60
2018-05-05T05:22:57.512Z,5.90
2018-05-05T05:23:57.488Z,6.00
2018-05-05T05:24:57.469Z,5.90
2018-05-05T05:25:57.455Z,5.50
2018-05-05T05:26:57.432Z,6.20
2018-05-05T05:27:57.416Z,5.60
2018-05-05T05:28:57.399Z,5.70
2018-05-05T05:29:57.384Z,5.40
2018-05-05T05:30:57.363Z,5.30
2018-05-05T05:31:57.345Z,5.10
2018-05-05T05:32:57.330Z,5.70
2018-05-05T05:33:57.367Z,5.20
2018-05-05T05:34:57.297Z,5.00
2018-05-05T05:35:57.279Z,5.10
2018-05-05T05:36:57.265Z,4.70
2018-05-05T05:37:57.240Z,5.10
2018-05-05T05:38:57.221Z,4.80
2018-05-05T05:39:57.202Z,5.90
2018-05-05T05:40:57.188Z,5.50
2018-05-05T05:41:57.169Z,5.90
2018-05-05T05:42:57.148Z,5.40
2018-05-05T05:43:57.130Z,5.20
2018-05-05T05:44:57.123Z,5.80
2018-05-05T05:45:57.096Z,4.80
2018-05-05T05:46:57.079Z,4.90
2018-05-05T05:47:57.062Z,4.90
2018-05-05T05:48:57.044Z,4.80
2018-05-05T05:49:57.032Z,4.90
2018-05-05T05:50:57.013Z,4.80
2018-05-05T05:51:57.000Z,5.10
2018-05-05T05:52:56.973Z,4.80
2018-05-05T05:53:56.956Z,5.10
2018-05-05T05:54:56.934Z,5.40
2018-05-05T05:55:56.920Z,4.40
2018-05-05T05:56:56.902Z,5.00
2018-05-05T05:57:56.884Z,4.80
2018-05-05T05:58:56.872Z,4.40
2018-05-05T05:59:56.853Z,4.80
2018-05-05T06:00:56.829Z,4.60
2018-05-05T06:01:56.811Z,4.40
2018-05-05T06:02:56.799Z,5.00
2018-05-05T06:03:56.778Z,4.30
2018-05-05T06:04:56.764Z,4.70
2018-05-05T06:05:56.740Z,4.80
2018-05-05T06:06:56.724Z,4.30
2018-05-05T06:07:56.705Z,4.90
2018-05-05T06:08:56.689Z,4.70
2018-05-05T06:09:56.669Z,4.70
2018-05-05T06:10:56.651Z,4.80
2018-05-05T06:11:56.633Z,4.60
2018-05-05T06:12:56.618Z,5.00
2018-05-05T06:13:56.598Z,4.60
2018-05-05T06:14:56.587Z,5.00
2018-05-05T06:15:56.570Z,4.70
2018-05-05T06:16:56.555Z,5.20
2018-05-05T06:17:56.530Z,5.10
2018-05-05T06:18:56.510Z,6.00
2018-05-05T06:19:56.497Z,6.40
2018-05-05T06:20:56.476Z,7.40
2018-05-05T06:21:56.458Z,7.30
2018-05-05T06:22:56.453Z,6.20
2018-05-05T06:23:56.429Z,5.70
2018-05-05T06:24:56.404Z,4.90
2018-05-05T06:25:56.388Z,4.80
2018-05-05T06:26:56.369Z,4.70
2018-05-05T06:27:56.355Z,4.30
2018-05-05T06:28:56.338Z,4.40
2018-05-05T06:29:56.322Z,4.80
2018-05-05T06:30:56.344Z,4.70
2018-05-05T06:31:56.285Z,4.60
2018-05-05T06:32:56.264Z,4.70
2018-05-05T06:33:56.255Z,4.80
2018-05-05T06:34:56.228Z,3.90
2018-05-05T06:35:56.210Z,4.80
2018-05-05T06:36:56.205Z,4.80
2018-05-05T06:37:56.183Z,4.50
2018-05-05T06:38:56.165Z,4.80
2018-05-05T06:39:56.144Z,4.60
2018-05-05T06:40:56.126Z,4.10
2018-05-05T06:41:56.108Z,4.30
2018-05-05T06:42:56.089Z,4.70
2018-05-05T06:43:56.079Z,4.30
2018-05-05T06:44:56.053Z,4.80
2018-05-05T06:45:56.043Z,4.60
2018-05-05T06:46:56.029Z,4.50
2018-05-05T06:47:56.008Z,4.10
2018-05-05T06:48:55.985Z,4.00
2018-05-05T06:49:55.968Z,4.30
2018-05-05T06:50:55.951Z,5.20
2018-05-05T06:51:55.929Z,4.70
2018-05-05T06:52:55.913Z,4.30
2018-05-05T06:53:55.898Z,4.00
2018-05-05T06:54:55.879Z,4.60
2018-05-05T06:55:55.875Z,4.40
2018-05-05T06:56:55.931Z,4.30
2018-05-05T06:57:55.833Z,4.60
2018-05-05T06:58:55.808Z,4.80
2018-05-05T06:59:55.788Z,5.50
2018-05-05T07:00:55.774Z,5.30
2018-05-05T07:01:55.757Z,4.60
2018-05-05T07:02:55.777Z,5.80
2018-05-05T07:03:55.719Z,4.80
2018-05-05T07:04:55.714Z,5.40
2018-05-05T07:05:55.687Z,5.10
2018-05-05T07:06:55.669Z,4.90
2018-05-05T07:07:55.651Z,5.50
2018-05-05T07:08:55.667Z,6.00
2018-05-05T07:09:55.616Z,5.00
2018-05-05T07:10:55.600Z,5.10
2018-05-05T07:11:55.581Z,4.50
2018-05-05T07:12:55.584Z,4.10
2018-05-05T07:13:55.555Z,3.90
2018-05-05T07:14:55.528Z,4.30
2018-05-05T07:15:55.509Z,4.00
2018-05-05T07:16:55.500Z,3.90
2018-05-05T07:17:55.473Z,4.10
2018-05-05T07:18:55.459Z,4.00
2018-05-05T07:19:55.439Z,4.30
2018-05-05T07:20:55.429Z,4.00
2018-05-05T07:21:55.406Z,3.80
2018-05-05T07:22:55.386Z,4.60
2018-05-05T07:23:55.379Z,3.90
2018-05-05T07:24:55.470Z,3.60
2018-05-05T07:25:55.337Z,4.20
2018-05-05T07:26:55.319Z,4.30
2018-05-05T07:27:55.304Z,3.90
2018-05-05T07:28:55.285Z,4.20
2018-05-05T07:29:55.267Z,4.40
2018-05-05T07:30:55.249Z,3.80
2018-05-05T07:31:55.240Z,3.70
2018-05-05T07:32:55.218Z,4.10
2018-05-05T07:33:55.197Z,4.00
2018-05-05T07:34:55.181Z,3.40
2018-05-05T07:35:55.240Z,3.40
2018-05-05T07:36:55.149Z,3.70
2018-05-05T07:37:55.128Z,4.00
2018-05-05T07:38:55.116Z,3.50
2018-05-05T07:39:55.099Z,3.90
2018-05-05T07:40:55.078Z,3.90
2018-05-05T07:41:55.062Z,4.30
2018-05-05T07:42:55.046Z,3.80
2018-05-05T07:43:55.030Z,3.60
2018-05-05T07:44:55.099Z,3.50
2018-05-05T07:45:55.000Z,3.50
2018-05-05T07:46:54.991Z,3.80
2018-05-05T07:47:54.970Z,3.80
2018-05-05T07:48:54.944Z,3.70
2018-05-05T07:49:54.928Z,3.50
2018-05-05T07:50:54.923Z,3.50
2018-05-05T07:51:54.899Z,4.10
2018-05-05T07:52:54.880Z,3.80
2018-05-05T07:53:54.872Z,3.70
2018-05-05T07:54:54.857Z,3.70
2018-05-05T07:55:54.837Z,3.10
2018-05-05T07:56:54.819Z,3.60
2018-05-05T07:57:54.799Z,3.60
2018-05-05T07:58:54.780Z,3.60
2018-05-05T07:59:54.771Z,4.00
2018-05-05T08:00:54.748Z,2.80
2018-05-05T08:01:54.733Z,3.90
2018-05-05T08:02:54.720Z,3.20
2018-05-05T08:03:54.700Z,3.30
2018-05-05T08:04:54.695Z,3.40
2018-05-05T08:05:54.672Z,3.00
2018-05-05T08:06:54.658Z,3.30
2018-05-05T08:07:54.637Z,3.30
2018-05-05T08:08:54.665Z,3.00
2018-05-05T08:09:54.599Z,3.00
2018-05-05T08:10:54.585Z,3.50
2018-05-05T08:11:54.569Z,3.00
2018-05-05T08:12:54.553Z,2.90
2018-05-05T08:13:54.537Z,2.80
2018-05-05T08:14:54.529Z,3.10
2018-05-05T08:15:54.511Z,2.50
2018-05-05T08:16:54.578Z,3.00
2018-05-05T08:17:54.470Z,3.10
2018-05-05T08:18:54.461Z,3.10
2018-05-05T08:19:54.440Z,2.60
2018-05-05T08:20:54.424Z,2.80
2018-05-05T08:21:54.411Z,2.80
2018-05-05T08:22:54.395Z,2.70
2018-05-05T08:23:54.381Z,2.50
2018-05-05T08:24:54.361Z,2.50
2018-05-05T08:25:54.345Z,2.40
2018-05-05T08:26:54.330Z,2.70
2018-05-05T08:27:54.324Z,2.50
2018-05-05T08:28:54.301Z,2.50
2018-05-05T08:29:54.279Z,2.70
2018-05-05T08:30:54.270Z,2.70
2018-05-05T08:31:54.260Z,2.60
2018-05-05T08:32:54.239Z,2.40
2018-05-05T08:33:54.221Z,2.60
2018-05-05T08:34:54.200Z,3.10
2018-05-05T08:35:54.190Z,2.40
2018-05-05T08:36:54.169Z,2.90
2018-05-05T08:37:54.156Z,2.70
2018-05-05T08:38:54.140Z,2.30
2018-05-05T08:39:54.124Z,2.90
2018-05-05T08:40:54.109Z,2.90
2018-05-05T08:41:54.104Z,3.10
2018-05-05T08:42:54.077Z,2.80
2018-05-05T08:43:54.061Z,3.20
2018-05-05T08:44:54.046Z,3.30
2018-05-05T08:45:54.031Z,3.20
2018-05-05T08:46:54.098Z,3.00
2018-05-05T08:47:54.000Z,3.10
2018-05-05T08:48:53.984Z,2.60
2018-05-05T08:49:53.966Z,4.20
2018-05-05T08:50:53.960Z,2.90
2018-05-05T08:51:53.940Z,2.80
2018-05-05T08:52:53.928Z,3.00
2018-05-05T08:53:53.910Z,3.90
2018-05-05T08:54:53.896Z,3.60
2018-05-05T08:55:53.889Z,3.70
2018-05-05T08:56:53.867Z,4.40
2018-05-05T08:57:53.850Z,3.70
2018-05-05T08:58:53.835Z,3.20
2018-05-05T08:59:53.818Z,3.40
2018-05-05T09:00:53.800Z,3.60
2018-05-05T09:01:53.786Z,3.60
2018-05-05T09:02:53.769Z,4.30
2018-05-05T09:03:53.755Z,4.00
2018-05-05T09:04:53.743Z,3.80
2018-05-05T09:05:53.725Z,3.80
2018-05-05T09:06:53.712Z,3.80
2018-05-05T09:07:53.699Z,5.00
2018-05-05T09:08:53.681Z,4.80
2018-05-05T09:09:53.671Z,4.20
2018-05-05T09:10:53.651Z,4.60
2018-05-05T09:11:53.636Z,4.50
2018-05-05T09:12:53.628Z,4.10
2018-05-05T09:13:53.604Z,4.50
2018-05-05T09:14:53.599Z,4.70
2018-05-05T09:15:53.587Z,4.70
2018-05-05T09:16:53.571Z,4.70
2018-05-05T09:17:53.544Z,4.70
2018-05-05T09:18:53.539Z,5.00
2018-05-05T09:19:53.521Z,4.90
2018-05-05T09:20:53.546Z,4.40
2018-05-05T09:21:53.486Z,4.60
2018-05-05T09:22:53.470Z,4.60
2018-05-05T09:23:53.463Z,5.30
2018-05-05T09:24:53.452Z,4.60
2018-05-05T09:25:53.423Z,4.70
2018-05-05T09:26:53.410Z,4.80
2018-05-05T09:27:53.442Z,4.10
2018-05-05T09:28:53.385Z,4.50
2018-05-05T09:29:53.368Z,4.50
2018-05-05T09:30:53.353Z,4.70
2018-05-05T09:31:53.337Z,4.90
2018-05-05T09:32:53.325Z,4.40
2018-05-05T09:33:53.333Z,5.70
2018-05-05T09:34:53.301Z,5.40
2018-05-05T09:35:53.282Z,5.40
2018-05-05T09:36:53.267Z,5.90
2018-05-05T09:37:53.252Z,5.50
2018-05-05T09:38:53.238Z,5.00
2018-05-05T09:39:53.224Z,5.60
2018-05-05T09:40:53.212Z,4.60
2018-05-05T09:41:53.193Z,5.40
2018-05-05T09:42:53.176Z,5.70
2018-05-05T09:43:53.166Z,5.60
2018-05-05T09:44:53.162Z,5.20
2018-05-05T09:45:53.140Z,5.50
2018-05-05T09:46:53.118Z,5.10
2018-05-05T09:47:53.113Z,4.80
2018-05-05T09:48:53.090Z,5.20
2018-05-05T09:49:53.077Z,5.20
2018-05-05T09:50:53.061Z,4.90
2018-05-05T09:51:53.044Z,4.60
2018-05-05T09:52:53.033Z,4.60
2018-05-05T09:53:53.015Z,5.10
2018-05-05T09:54:53.010Z,4.30
2018-05-05T09:55:52.989Z,4.70
2018-05-05T09:56:52.979Z,4.40
2018-05-05T09:57:52.960Z,4.60
2018-05-05T09:58:52.945Z,5.20
2018-05-05T09:59:52.929Z,4.80
2018-05-05T10:00:52.938Z,5.20
2018-05-05T10:01:52.907Z,4.70
2018-05-05T10:02:52.891Z,4.50
2018-05-05T10:03:52.870Z,4.10
2018-05-05T10:04:52.862Z,4.20
2018-05-05T10:05:52.847Z,4.40
2018-05-05T10:06:52.833Z,3.80
2018-05-05T10:07:52.811Z,4.30
2018-05-05T10:08:52.838Z,4.60
2018-05-05T10:09:52.791Z,4.50
2018-05-05T10:10:52.771Z,4.40
2018-05-05T10:11:52.759Z,5.10
2018-05-05T10:12:52.741Z,4.80
2018-05-05T10:13:52.731Z,4.70
2018-05-05T10:14:52.723Z,4.40
2018-05-05T10:15:52.709Z,4.30
2018-05-05T10:16:52.692Z,4.80
2018-05-05T10:17:52.667Z,4.90
2018-05-05T10:18:52.666Z,4.40
2018-05-05T10:19:52.642Z,4.80
2018-05-05T10:20:52.628Z,4.50
2018-05-05T10:21:52.614Z,5.10
2018-05-05T10:22:52.599Z,4.90
2018-05-05T10:23:52.662Z,4.70
2018-05-05T10:24:52.574Z,4.90
2018-05-05T10:25:52.561Z,4.60
2018-05-05T10:26:52.550Z,4.60
2018-05-05T10:27:52.526Z,5.20
2018-05-05T10:28:52.518Z,4.60
2018-05-05T10:29:52.508Z,5.10
2018-05-05T10:30:52.490Z,5.00
2018-05-05T10:31:52.496Z,5.00
2018-05-05T10:32:52.461Z,5.40
2018-05-05T10:33:52.449Z,5.10
2018-05-05T10:34:52.431Z,4.70
2018-05-05T10:35:52.420Z,4.60
2018-05-05T10:36:52.415Z,5.30
2018-05-05T10:37:52.396Z,5.00
2018-05-05T10:38:52.378Z,4.70
2018-05-05T10:39:52.360Z,5.50
2018-05-05T10:40:52.351Z,5.20
2018-05-05T10:41:52.332Z,5.40
2018-05-05T10:42:52.324Z,4.60
2018-05-05T10:43:52.302Z,5.00
2018-05-05T10:44:52.288Z,5.20
2018-05-05T10:45:52.276Z,5.20
2018-05-05T10:46:52.265Z,4.40
2018-05-05T10:47:52.252Z,4.90
2018-05-05T10:48:52.240Z,5.40
2018-05-05T10:49:52.221Z,5.10
2018-05-05T10:50:52.206Z,4.60
2018-05-05T10:51:52.192Z,4.70
2018-05-05T10:52:52.192Z,4.60
2018-05-05T10:53:52.162Z,4.40
2018-05-05T10:54:52.152Z,5.30
2018-05-05T10:55:52.136Z,4.70
2018-05-05T10:56:52.127Z,4.90
2018-05-05T10:57:52.112Z,4.60
2018-05-05T10:58:52.094Z,4.50
2018-05-05T10:59:52.079Z,4.70
2018-05-05T11:00:52.078Z,4.30
2018-05-05T11:01:52.060Z,4.50
2018-05-05T11:02:52.046Z,5.80
2018-05-05T11:03:52.038Z,4.90
2018-05-05T11:04:52.010Z,4.50
2018-05-05T11:05:51.996Z,4.40
2018-05-05T11:06:51.982Z,4.30
2018-05-05T11:07:51.976Z,5.10
2018-05-05T11:08:51.959Z,4.70
2018-05-05T11:09:51.951Z,4.90
2018-05-05T11:10:51.943Z,4.60
2018-05-05T11:11:51.919Z,4.50
2018-05-05T11:12:51.908Z,4.70
2018-05-05T11:13:51.890Z,5.20
2018-05-05T11:14:51.884Z,4.10
2018-05-05T11:15:51.870Z,5.20
2018-05-05T11:16:51.852Z,4.10
2018-05-05T11:17:51.833Z,4.30
2018-05-05T11:18:51.820Z,5.00
2018-05-05T11:19:51.810Z,4.60
2018-05-05T11:20:51.795Z,5.00
2018-05-05T11:21:51.780Z,4.50
2018-05-05T11:22:51.769Z,4.70
2018-05-05T11:23:51.826Z,4.10
2018-05-05T11:24:51.740Z,4.40
2018-05-05T11:25:51.723Z,4.40
2018-05-05T11:26:51.709Z,4.90
2018-05-05T11:27:51.701Z,4.40
2018-05-05T11:28:51.685Z,4.80
2018-05-05T11:29:51.714Z,4.50
2018-05-05T11:30:51.662Z,5.10
2018-05-05T11:31:51.656Z,5.10
2018-05-05T11:32:51.636Z,4.60
2018-05-05T11:33:51.622Z,5.20
2018-05-05T11:34:51.606Z,4.80
2018-05-05T11:35:51.601Z,5.00
2018-05-05T11:36:51.611Z,5.10
2018-05-05T11:37:51.571Z,4.50
2018-05-05T11:38:51.559Z,4.20
2018-05-05T11:39:51.536Z,4.80
2018-05-05T11:40:51.531Z,4.00
2018-05-05T11:41:51.525Z,4.10
2018-05-05T11:42:51.496Z,4.40
2018-05-05T11:43:51.487Z,5.00
2018-05-05T11:44:51.476Z,5.10
2018-05-05T11:45:51.467Z,4.70
2018-05-05T11:46:51.441Z,5.20
2018-05-05T11:47:51.431Z,4.80
2018-05-05T11:48:51.418Z,4.70
2018-05-05T11:49:51.402Z,6.10
2018-05-05T11:50:51.398Z,5.30
2018-05-05T11:51:51.385Z,5.60
2018-05-05T11:52:51.369Z,4.70
2018-05-05T11:53:51.351Z,5.60
2018-05-05T11:54:51.339Z,5.00
2018-05-05T11:55:51.331Z,4.90
2018-05-05T11:56:51.317Z,4.80
2018-05-05T11:57:51.300Z,5.40
2018-05-05T11:58:51.294Z,4.90
2018-05-05T11:59:51.271Z,4.50
2018-05-05T12:00:51.264Z,5.30
2018-05-05T12:01:51.251Z,5.50
2018-05-05T12:02:51.247Z,5.00
2018-05-05T12:03:51.223Z,5.10
2018-05-05T12:04:51.210Z,4.70
2018-05-05T12:05:51.191Z,5.50
2018-05-05T12:06:51.180Z,5.50
2018-05-05T12:07:51.166Z,5.70
2018-05-05T12:08:51.154Z,5.10
2018-05-05T12:09:51.185Z,5.40
2018-05-05T12:10:51.165Z,5.20
2018-05-05T12:11:51.111Z,5.70
2018-05-05T12:12:51.100Z,4.60
2018-05-05T12:13:51.088Z,5.40
2018-05-05T12:14:51.070Z,5.10
2018-05-05T12:15:51.061Z,5.40
2018-05-05T12:16:51.048Z,5.30
2018-05-05T12:17:51.030Z,5.20
2018-05-05T12:18:51.025Z,4.60
2018-05-05T12:19:51.006Z,4.70
2018-05-05T12:20:51.006Z,5.20
2018-05-05T12:21:50.982Z,5.30
2018-05-05T12:22:50.974Z,4.90
2018-05-05T12:23:50.957Z,4.80
2018-05-05T12:24:50.944Z,4.70
2018-05-05T12:25:50.928Z,4.90
2018-05-05T12:26:50.914Z,5.30
2018-05-05T12:27:50.902Z,5.20
2018-05-05T12:28:50.901Z,4.90
2018-05-05T12:29:50.889Z,4.60
2018-05-05T12:30:50.869Z,4.70
2018-05-05T12:31:50.858Z,4.50
2018-05-05T12:32:50.841Z,4.80
2018-05-05T12:33:50.820Z,4.50
2018-05-05T12:34:50.809Z,4.60
2018-05-05T12:35:50.799Z,4.70
2018-05-05T12:36:50.801Z,5.20
2018-05-05T12:37:50.777Z,4.60
2018-05-05T12:38:50.758Z,4.30
2018-05-05T12:39:50.751Z,3.60
2018-05-05T12:40:50.742Z,3.50
2018-05-05T12:41:50.731Z,4.30
2018-05-05T12:42:50.710Z,3.60
2018-05-05T12:43:50.696Z,3.50
2018-05-05T12:44:50.681Z,3.70
2018-05-05T12:45:50.681Z,3.60
2018-05-05T12:46:50.670Z,3.70
2018-05-05T12:47:50.668Z,3.70
2018-05-05T12:48:50.630Z,3.90
2018-05-05T12:49:50.616Z,3.90
2018-05-05T12:50:50.609Z,3.90
2018-05-05T12:51:50.592Z,4.00
2018-05-05T12:52:50.580Z,4.20
2018-05-05T12:53:50.570Z,3.90
2018-05-05T12:54:50.552Z,3.80
2018-05-05T12:55:50.537Z,4.60
2018-05-05T12:56:50.529Z,4.40
2018-05-05T12:57:50.513Z,4.50
2018-05-05T12:58:50.499Z,4.10
2018-05-05T12:59:50.497Z,4.10
2018-05-05T13:00:50.476Z,4.20
2018-05-05T13:01:50.461Z,5.00
2018-05-05T13:02:50.449Z,4.80
2018-05-05T13:03:50.435Z,4.20
2018-05-05T13:04:50.422Z,4.10
2018-05-05T13:05:50.422Z,3.80
2018-05-05T13:06:50.396Z,4.40
2018-05-05T13:07:50.388Z,4.30
2018-05-05T13:08:50.371Z,4.00
2018-05-05T13:09:50.357Z,4.10
2018-05-05T13:10:50.346Z,4.60
2018-05-05T13:11:50.330Z,4.40
2018-05-05T13:12:50.328Z,4.20
2018-05-05T13:13:50.309Z,4.10
2018-05-05T13:14:50.289Z,4.20
2018-05-05T13:15:50.281Z,3.50